JES3880 SABE-SCEL
Flight info
| Callsign | JES3880 |
|---|---|
| Flight time | N/A |
| Altitude | 34000 |
| Route | PAL9 NEPIS DCT NIN UL405 TOSOR UT687 UMKAL UMKAL7C |
| Aircraft | A320/M-SDE3FGHIRWY/LB1 |
Departure
| Time | 2026-05-07 17:13 |
|---|---|
| Airport | Aeroparque Jorge Newbery (SABE) |
Arrival
| Time | N/A |
|---|---|
| Airport | Comodoro Arturo Merino Benítez International Airport (SCEL) |
| Time | Latitude | Longitude | Altitude | Speed | Heading |
|---|---|---|---|---|---|
| 2026-05-07 16:48 | -34.55677 | -58.41486 | 30 ft | 0 kts | 13° |
| 2026-05-07 17:04 | -34.55680 | -58.41486 | 30 ft | 3 kts | 13° |
| 2026-05-07 17:05 | -34.55700 | -58.41492 | 30 ft | 3 kts | 13° |
| 2026-05-07 17:05 | -34.55718 | -58.41493 | 29 ft | 2 kts | 332° |
| 2026-05-07 17:05 | -34.55728 | -58.41485 | 29 ft | 2 kts | 314° |
| 2026-05-07 17:05 | -34.55733 | -58.41479 | 30 ft | 0 kts | 297° |
| 2026-05-07 17:09 | -34.55730 | -58.41487 | 30 ft | 4 kts | 297° |
| 2026-05-07 17:09 | -34.55723 | -58.41546 | 28 ft | 10 kts | 246° |
| 2026-05-07 17:09 | -34.55782 | -58.41603 | 25 ft | 11 kts | 234° |
| 2026-05-07 17:10 | -34.55772 | -58.41666 | 28 ft | 12 kts | 295° |
| 2026-05-07 17:10 | -34.55731 | -58.41765 | 30 ft | 14 kts | 300° |
| 2026-05-07 17:10 | -34.55672 | -58.41871 | 29 ft | 16 kts | 304° |
| 2026-05-07 17:10 | -34.55607 | -58.41989 | 27 ft | 18 kts | 304° |
| 2026-05-07 17:11 | -34.55531 | -58.42116 | 29 ft | 19 kts | 307° |
| 2026-05-07 17:11 | -34.55449 | -58.42251 | 27 ft | 17 kts | 306° |
| 2026-05-07 17:11 | -34.55420 | -58.42295 | 27 ft | 6 kts | 309° |
| 2026-05-07 17:11 | -34.55387 | -58.42345 | 28 ft | 10 kts | 307° |
| 2026-05-07 17:12 | -34.55361 | -58.42443 | 26 ft | 13 kts | 277° |
| 2026-05-07 17:12 | -34.55414 | -58.42489 | 28 ft | 12 kts | 128° |
| 2026-05-07 17:12 | -34.55518 | -58.42308 | 28 ft | 57 kts | 124° |
| 2026-05-07 17:12 | -34.55875 | -58.41668 | 24 ft | 122 kts | 124° |
| 2026-05-07 17:13 | -34.56454 | -58.40654 | 126 ft | 164 kts | 129° |
| 2026-05-07 17:13 | -34.57090 | -58.39511 | 794 ft | 166 kts | 128° |
| 2026-05-07 17:13 | -34.57666 | -58.38245 | 1283 ft | 182 kts | 113° |
| 2026-05-07 17:13 | -34.57677 | -58.36594 | 1510 ft | 214 kts | 73° |
| 2026-05-07 17:14 | -34.56822 | -58.35025 | 1760 ft | 236 kts | 42° |
| 2026-05-07 17:14 | -34.55634 | -58.33532 | 2097 ft | 258 kts | 45° |
| 2026-05-07 17:14 | -34.54352 | -58.31855 | 2626 ft | 282 kts | 46° |
| 2026-05-07 17:14 | -34.52907 | -58.30208 | 3571 ft | 288 kts | 31° |
| 2026-05-07 17:15 | -34.51084 | -58.29213 | 4319 ft | 288 kts | 9° |
| 2026-05-07 17:15 | -34.49128 | -58.29130 | 4727 ft | 280 kts | 345° |
| 2026-05-07 17:15 | -34.47341 | -58.29946 | 5904 ft | 272 kts | 325° |
| 2026-05-07 17:15 | -34.45894 | -58.31379 | 6879 ft | 269 kts | 309° |
| 2026-05-07 17:16 | -34.44941 | -58.33311 | 7752 ft | 268 kts | 288° |
| 2026-05-07 17:16 | -34.44602 | -58.35525 | 8677 ft | 271 kts | 270° |
| 2026-05-07 17:16 | -34.44931 | -58.37789 | 9568 ft | 276 kts | 251° |
| 2026-05-07 17:16 | -34.45910 | -58.39816 | 10361 ft | 285 kts | 231° |
| 2026-05-07 17:17 | -34.47449 | -58.41363 | 11147 ft | 291 kts | 218° |
| 2026-05-07 17:17 | -34.49103 | -58.42783 | 11913 ft | 292 kts | 220° |
| 2026-05-07 17:17 | -34.50710 | -58.44299 | 12630 ft | 294 kts | 224° |
| 2026-05-07 17:17 | -34.52250 | -58.45949 | 13340 ft | 296 kts | 227° |
| 2026-05-07 17:18 | -34.53689 | -58.47699 | 13960 ft | 298 kts | 232° |
| 2026-05-07 17:18 | -34.55071 | -58.49581 | 14596 ft | 299 kts | 236° |
| 2026-05-07 17:18 | -34.56376 | -58.51566 | 15115 ft | 306 kts | 239° |
| 2026-05-07 17:18 | -34.57639 | -58.53728 | 15214 ft | 323 kts | 243° |
| 2026-05-07 17:19 | -34.58862 | -58.56101 | 15416 ft | 337 kts | 245° |
| 2026-05-07 17:19 | -34.60006 | -58.58607 | 15892 ft | 341 kts | 249° |
| 2026-05-07 17:19 | -34.60726 | -58.61292 | 16433 ft | 331 kts | 271° |
| 2026-05-07 17:19 | -34.60421 | -58.64005 | 17024 ft | 324 kts | 290° |
| 2026-05-07 17:20 | -34.59837 | -58.66662 | 17631 ft | 329 kts | 283° |
| 2026-05-07 17:20 | -34.59635 | -58.69446 | 18238 ft | 334 kts | 277° |
| 2026-05-07 17:20 | -34.59643 | -58.72281 | 18804 ft | 337 kts | 275° |
| 2026-05-07 17:20 | -34.59711 | -58.75133 | 19367 ft | 339 kts | 275° |